Freedom of the Seas — C6UZ7 — position and weather

sailwx.info

Track history (hours):
 
Tides and Currents Weather Stations Pressure Air Temp Water Temp Dewpoint Dewpoint Depression Visibility Wind Speed Wind Dir Waves Ship Positions

Freedom of the Seas

Last reported at 2017-Oct-22 02:47 UTC. Time now 2017-Oct-22 07:54 UTC.
Position N 41°18' E 002°11'.

Length 339 m; draft 9 m.

Type: Passenger vessel. MMSI: 309906000.

Date/timePositionNaut miles runAvg speedWind from/ knotsBaromVisibWave heightAir tempDewpointWater temp
2017-Oct-22 02:47N 41°18' E 002°11'53616.3
2017-Oct-20 18:01N 40°36' E 013°58'019.2
2017-Oct-20 18:01N 40°36' E 013°58'10581.1
2017-Oct-20 18:00N 40°30' E 013°48'1838.3 340 / 91020.010.8 20.014.923.0
2017-Oct-20 17:31N 40°41' E 014°07'917.2
2017-Oct-20 17:00N 40°47' E 014°15'3 0.9
2017-Oct-20 13:57N 40°50' E 014°16'0 0.0
2017-Oct-20 13:24N 40°50' E 014°16'0 0.0
2017-Oct-20 12:57N 40°50' E 014°16'0 0.0
2017-Oct-20 12:30N 40°50' E 014°16'0 0.0
2017-Oct-20 12:00N 40°50' E 014°16'0 0.0
2017-Oct-20 11:27N 40°50' E 014°16'108 7.0
2017-Oct-19 20:00N 41°24' E 012°00'72 3.8 110 / 121018.010.8 20.014.923.0
2017-Oct-19 01:00N 42°12' E 010°48'8119.5 110 / 81018.310.8 19.015.720.0
2017-Oct-18 20:51N 43°11' E 009°32'719.7
2017-Oct-18 20:29N 43°18' E 009°31'612.3
2017-Oct-18 20:00N 43°12' E 009°30'1618892.3 120 / 181019.010.8 20.014.922.0
2017-Oct-18 19:59N 43°28' E 009°33'1119.7
2017-Oct-18 19:27N 43°38' E 009°37'919.9
2017-Oct-18 19:00N 43°46' E 009°40'1020.0
2017-Oct-18 18:30N 43°56' E 009°45'816.8
2017-Oct-18 18:00N 44°02' E 009°52'4 7.4
2017-Oct-18 17:30N 44°06' E 009°50'0 0.8
2017-Oct-18 16:56N 44°06' E 009°50'0 0.0
2017-Oct-18 16:29N 44°06' E 009°50'0 0.0
2017-Oct-18 15:59N 44°06' E 009°50'0 0.0
2017-Oct-18 15:29N 44°06' E 009°50'0 0.0
2017-Oct-18 14:56N 44°06' E 009°50'0 0.0
2017-Oct-18 13:59N 44°06' E 009°50'0 0.0
2017-Oct-18 13:29N 44°06' E 009°50'0 0.0
2017-Oct-18 12:59N 44°06' E 009°50'0 0.0
2017-Oct-18 12:29N 44°06' E 009°50'0 0.0
2017-Oct-18 11:59N 44°06' E 009°50'0 0.0
2017-Oct-18 11:29N 44°06' E 009°50'0 0.0
2017-Oct-18 10:59N 44°06' E 009°50'0 0.0
2017-Oct-18 10:29N 44°06' E 009°50'0 0.0
2017-Oct-18 09:59N 44°06' E 009°50'0 0.0
2017-Oct-18 09:29N 44°06' E 009°50'0 0.0
2017-Oct-18 08:59N 44°06' E 009°50'0 0.0
2017-Oct-18 08:29N 44°06' E 009°50'0 0.0
2017-Oct-18 07:59N 44°06' E 009°50'0 0.0
2017-Oct-18 07:29N 44°06' E 009°50'0 0.0
2017-Oct-18 06:59N 44°06' E 009°50'0 0.0
2017-Oct-18 06:29N 44°06' E 009°50'0 0.0
2017-Oct-18 05:56N 44°06' E 009°50'0 0.0
2017-Oct-18 05:29N 44°06' E 009°50'0 0.0
2017-Oct-18 04:59N 44°06' E 009°50'0 1.0
2017-Oct-18 04:31N 44°06' E 009°51'3 6.1
2017-Oct-18 04:00N 44°03' E 009°52'4 8.1
2017-Oct-18 03:31N 43°60' E 009°55'510.4
2017-Oct-18 03:00N 43°59' E 009°48'610.5
2017-Oct-18 02:26N 43°57' E 009°40'510.7
2017-Oct-18 02:00N 43°56' E 009°34'3343.4
2017-Oct-18 02:00N 43°54' E 009°30'3 5.9 110 / 101021.610.8 18.014.621.0
2017-Oct-18 01:30N 43°55' E 009°26'510.8
2017-Oct-18 01:00N 43°54' E 009°19'510.5
2017-Oct-18 00:30N 43°53' E 009°12'611.0
2017-Oct-18 00:00N 43°52' E 009°04'611.4
2017-Oct-17 23:30N 43°51' E 008°56'611.3
2017-Oct-17 23:00N 43°50' E 008°49'611.5
2017-Oct-17 22:30N 43°49' E 008°41'611.5
2017-Oct-17 22:00N 43°48' E 008°33'611.4
2017-Oct-17 21:30N 43°47' E 008°25'510.3
2017-Oct-17 21:00N 43°48' E 008°18'331.8 070 / 31022.010.8 18.012.722.0
2017-Oct-17 20:54N 43°46' E 008°16'411.1
2017-Oct-17 20:30N 43°45' E 008°10'511.1
2017-Oct-17 20:00N 43°44' E 008°02'611.1
2017-Oct-17 19:30N 43°43' E 007°55'611.1
2017-Oct-17 19:00N 43°42' E 007°47'510.9
2017-Oct-17 18:30N 43°41' E 007°40'611.5
2017-Oct-17 18:00N 43°40' E 007°32'911.2
2017-Oct-17 17:11N 43°39' E 007°19'3 7.8
2017-Oct-17 16:51N 43°41' E 007°19'0 0.0
2017-Oct-17 14:54N 43°41' E 007°19'0 0.0
2017-Oct-17 07:33N 43°41' E 007°19'4 1.1
2017-Oct-17 04:19N 43°38' E 007°18'412.1
2017-Oct-17 04:00N 43°34' E 007°17'612.0
2017-Oct-17 03:30N 43°28' E 007°16'612.1
2017-Oct-17 03:00N 43°22' E 007°14'612.1
2017-Oct-17 02:29N 43°16' E 007°12'612.7
2017-Oct-17 02:00N 43°11' E 007°07'612.6
2017-Oct-17 01:30N 43°06' E 007°01'612.5
2017-Oct-17 01:00N 43°02' E 006°56'612.4
2017-Oct-17 00:30N 42°57' E 006°50'612.6
2017-Oct-17 00:00N 42°52' E 006°45'1711.8
2017-Oct-16 22:31N 42°51' E 006°21'012.8
2017-Oct-16 22:30N 42°51' E 006°21'712.3
2017-Oct-16 21:58N 42°52' E 006°12'612.4
2017-Oct-16 21:29N 42°54' E 006°04'712.6
2017-Oct-16 20:55N 42°55' E 005°54'18 9.5
2017-Oct-16 19:00N 43°00' E 005°30'1521.0 190 / 31027.010.8 18.012.722.0
2017-Oct-16 18:18N 43°08' E 005°13'412.8
2017-Oct-16 18:00N 43°11' E 005°10'612.0
2017-Oct-16 17:30N 43°16' E 005°13'7 0.6
2017-Oct-16 06:16N 43°21' E 005°20'2 6.2
2017-Oct-16 06:00N 43°21' E 005°17'511.0
2017-Oct-16 05:30N 43°17' E 005°12'713.3
2017-Oct-16 04:59N 43°12' E 005°05'812.7
2017-Oct-16 04:19N 43°06' E 004°58'612.9
2017-Oct-16 03:52N 43°02' E 004°52'513.1
2017-Oct-16 03:30N 42°58' E 004°48'612.8
2017-Oct-16 03:00N 42°53' E 004°42'1013.0
2017-Oct-16 02:14N 42°46' E 004°33'513.2
2017-Oct-16 01:50N 42°42' E 004°28'3212.9
2017-Oct-15 23:20N 42°19' E 003°57'1513.7
2017-Oct-15 22:16N 42°09' E 003°43'1310.3
2017-Oct-15 21:00N 42°00' E 003°30'60 2.4 180 / 151027.010.8 20.014.922.0
2017-Oct-14 20:00N 41°12' E 004°18'44016.9 150 / 131027.010.8 21.017.823.0
2017-Oct-13 17:58N 40°35' E 013°58'817.2
2017-Oct-13 17:30N 40°40' E 014°06'917.4
2017-Oct-13 17:00N 40°46' E 014°14'2 0.4
2017-Oct-13 11:00N 40°48' E 014°12'119 7.9 190 / 71016.010.8 22.015.423.0
2017-Oct-12 20:00N 41°36' E 011°48'   270 / 111019.010.8 19.013.823.0
Track history (hours):
 
Tides and Currents Weather Stations Pressure Air Temp Water Temp Dewpoint Dewpoint Depression Visibility Wind Speed Wind Dir Waves Ship Positions

Freedom of the Seas

Last reported at 2017-Oct-22 02:47 UTC. Time now 2017-Oct-22 07:54 UTC.
Position N 41°18' E 002°11'.

Length 339 m; draft 9 m.

Type: Passenger vessel. MMSI: 309906000.

Date/timePositionNaut miles runAvg speedWind from/ knotsBaromVisibWave heightAir tempDewpointWater temp
2017-Oct-22 02:47N 41°18' E 002°11'53616.3
2017-Oct-20 18:01N 40°36' E 013°58'019.2
2017-Oct-20 18:01N 40°36' E 013°58'10581.1
2017-Oct-20 18:00N 40°30' E 013°48'1838.3 340 / 91020.010.8 20.014.923.0
2017-Oct-20 17:31N 40°41' E 014°07'917.2
2017-Oct-20 17:00N 40°47' E 014°15'3 0.9
2017-Oct-20 13:57N 40°50' E 014°16'0 0.0
2017-Oct-20 13:24N 40°50' E 014°16'0 0.0
2017-Oct-20 12:57N 40°50' E 014°16'0 0.0
2017-Oct-20 12:30N 40°50' E 014°16'0 0.0
2017-Oct-20 12:00N 40°50' E 014°16'0 0.0
2017-Oct-20 11:27N 40°50' E 014°16'108 7.0
2017-Oct-19 20:00N 41°24' E 012°00'72 3.8 110 / 121018.010.8 20.014.923.0
2017-Oct-19 01:00N 42°12' E 010°48'8119.5 110 / 81018.310.8 19.015.720.0
2017-Oct-18 20:51N 43°11' E 009°32'719.7
2017-Oct-18 20:29N 43°18' E 009°31'612.3
2017-Oct-18 20:00N 43°12' E 009°30'1618892.3 120 / 181019.010.8 20.014.922.0
2017-Oct-18 19:59N 43°28' E 009°33'1119.7
2017-Oct-18 19:27N 43°38' E 009°37'919.9
2017-Oct-18 19:00N 43°46' E 009°40'1020.0
2017-Oct-18 18:30N 43°56' E 009°45'816.8
2017-Oct-18 18:00N 44°02' E 009°52'4 7.4
2017-Oct-18 17:30N 44°06' E 009°50'0 0.8
2017-Oct-18 16:56N 44°06' E 009°50'0 0.0
2017-Oct-18 16:29N 44°06' E 009°50'0 0.0
2017-Oct-18 15:59N 44°06' E 009°50'0 0.0
2017-Oct-18 15:29N 44°06' E 009°50'0 0.0
2017-Oct-18 14:56N 44°06' E 009°50'0 0.0
2017-Oct-18 13:59N 44°06' E 009°50'0 0.0
2017-Oct-18 13:29N 44°06' E 009°50'0 0.0
2017-Oct-18 12:59N 44°06' E 009°50'0 0.0
2017-Oct-18 12:29N 44°06' E 009°50'0 0.0
2017-Oct-18 11:59N 44°06' E 009°50'0 0.0
2017-Oct-18 11:29N 44°06' E 009°50'0 0.0
2017-Oct-18 10:59N 44°06' E 009°50'0 0.0
2017-Oct-18 10:29N 44°06' E 009°50'0 0.0
2017-Oct-18 09:59N 44°06' E 009°50'0 0.0
2017-Oct-18 09:29N 44°06' E 009°50'0 0.0
2017-Oct-18 08:59N 44°06' E 009°50'0 0.0
2017-Oct-18 08:29N 44°06' E 009°50'0 0.0
2017-Oct-18 07:59N 44°06' E 009°50'0 0.0
2017-Oct-18 07:29N 44°06' E 009°50'0 0.0
2017-Oct-18 06:59N 44°06' E 009°50'0 0.0
2017-Oct-18 06:29N 44°06' E 009°50'0 0.0
2017-Oct-18 05:56N 44°06' E 009°50'0 0.0
2017-Oct-18 05:29N 44°06' E 009°50'0 0.0
2017-Oct-18 04:59N 44°06' E 009°50'0 1.0
2017-Oct-18 04:31N 44°06' E 009°51'3 6.1
2017-Oct-18 04:00N 44°03' E 009°52'4 8.1
2017-Oct-18 03:31N 43°60' E 009°55'510.4
2017-Oct-18 03:00N 43°59' E 009°48'610.5
2017-Oct-18 02:26N 43°57' E 009°40'510.7
2017-Oct-18 02:00N 43°56' E 009°34'3343.4
2017-Oct-18 02:00N 43°54' E 009°30'3 5.9 110 / 101021.610.8 18.014.621.0
2017-Oct-18 01:30N 43°55' E 009°26'510.8
2017-Oct-18 01:00N 43°54' E 009°19'510.5
2017-Oct-18 00:30N 43°53' E 009°12'611.0
2017-Oct-18 00:00N 43°52' E 009°04'611.4
2017-Oct-17 23:30N 43°51' E 008°56'611.3
2017-Oct-17 23:00N 43°50' E 008°49'611.5
2017-Oct-17 22:30N 43°49' E 008°41'611.5
2017-Oct-17 22:00N 43°48' E 008°33'611.4
2017-Oct-17 21:30N 43°47' E 008°25'510.3
2017-Oct-17 21:00N 43°48' E 008°18'331.8 070 / 31022.010.8 18.012.722.0
2017-Oct-17 20:54N 43°46' E 008°16'411.1
2017-Oct-17 20:30N 43°45' E 008°10'511.1
2017-Oct-17 20:00N 43°44' E 008°02'611.1
2017-Oct-17 19:30N 43°43' E 007°55'611.1
2017-Oct-17 19:00N 43°42' E 007°47'510.9
2017-Oct-17 18:30N 43°41' E 007°40'611.5
2017-Oct-17 18:00N 43°40' E 007°32'911.2
2017-Oct-17 17:11N 43°39' E 007°19'3 7.8
2017-Oct-17 16:51N 43°41' E 007°19'0 0.0
2017-Oct-17 14:54N 43°41' E 007°19'0 0.0
2017-Oct-17 07:33N 43°41' E 007°19'4 1.1
2017-Oct-17 04:19N 43°38' E 007°18'412.1
2017-Oct-17 04:00N 43°34' E 007°17'612.0
2017-Oct-17 03:30N 43°28' E 007°16'612.1
2017-Oct-17 03:00N 43°22' E 007°14'612.1
2017-Oct-17 02:29N 43°16' E 007°12'612.7
2017-Oct-17 02:00N 43°11' E 007°07'612.6
2017-Oct-17 01:30N 43°06' E 007°01'612.5
2017-Oct-17 01:00N 43°02' E 006°56'612.4
2017-Oct-17 00:30N 42°57' E 006°50'612.6
2017-Oct-17 00:00N 42°52' E 006°45'1711.8
2017-Oct-16 22:31N 42°51' E 006°21'012.8
2017-Oct-16 22:30N 42°51' E 006°21'712.3
2017-Oct-16 21:58N 42°52' E 006°12'612.4
2017-Oct-16 21:29N 42°54' E 006°04'712.6
2017-Oct-16 20:55N 42°55' E 005°54'18 9.5
2017-Oct-16 19:00N 43°00' E 005°30'1521.0 190 / 31027.010.8 18.012.722.0
2017-Oct-16 18:18N 43°08' E 005°13'412.8
2017-Oct-16 18:00N 43°11' E 005°10'612.0
2017-Oct-16 17:30N 43°16' E 005°13'7 0.6
2017-Oct-16 06:16N 43°21' E 005°20'2 6.2
2017-Oct-16 06:00N 43°21' E 005°17'511.0
2017-Oct-16 05:30N 43°17' E 005°12'713.3
2017-Oct-16 04:59N 43°12' E 005°05'812.7
2017-Oct-16 04:19N 43°06' E 004°58'612.9
2017-Oct-16 03:52N 43°02' E 004°52'513.1
2017-Oct-16 03:30N 42°58' E 004°48'612.8
2017-Oct-16 03:00N 42°53' E 004°42'1013.0
2017-Oct-16 02:14N 42°46' E 004°33'513.2
2017-Oct-16 01:50N 42°42' E 004°28'3212.9
2017-Oct-15 23:20N 42°19' E 003°57'1513.7
2017-Oct-15 22:16N 42°09' E 003°43'1310.3
2017-Oct-15 21:00N 42°00' E 003°30'60 2.4 180 / 151027.010.8 20.014.922.0
2017-Oct-14 20:00N 41°12' E 004°18'44016.9 150 / 131027.010.8 21.017.823.0
2017-Oct-13 17:58N 40°35' E 013°58'817.2
2017-Oct-13 17:30N 40°40' E 014°06'917.4
2017-Oct-13 17:00N 40°46' E 014°14'2 0.4
2017-Oct-13 11:00N 40°48' E 014°12'119 7.9 190 / 71016.010.8 22.015.423.0
2017-Oct-12 20:00N 41°36' E 011°48'   270 / 111019.010.8 19.013.823.0

Dump ship's entire track history